Time;durP1;ratioP1;P1;durP2;ratioP2;P2;SDS_P1;SDS_P2;PMS_P1;PMS_P2;Temp;Humidity;BMP_temperature;BMP_pressure;BME280_temperature;BME280_humidity;BME280_pressure;Samples;Min_cycle;Max_cycle;Signal;HPM_P1;HPM_P2
2022/06/16 00:01:56;;;;;;;2.17;1.05;;;23.30;37.40;;;;;;2372971;53;20981;-88
2022/06/16 00:04:22;;;;;;;2.87;0.90;;;23.30;37.50;;;;;;2622198;52;21127;-84
2022/06/16 00:06:49;;;;;;;1.95;0.93;;;23.20;37.50;;;;;;2622378;52;21755;-85
2022/06/16 00:09:16;;;;;;;1.50;0.70;;;23.30;37.60;;;;;;2623808;52;21463;-84
2022/06/16 00:11:43;;;;;;;2.42;0.80;;;23.30;37.60;;;;;;2372869;53;20980;-85
2022/06/16 00:14:10;;;;;;;2.90;0.80;;;23.20;37.60;;;;;;2372689;53;20941;-87
2022/06/16 00:16:36;;;;;;;2.12;0.90;;;23.20;37.70;;;;;;2624739;52;21009;-87
2022/06/16 00:19:02;;;;;;;2.10;0.88;;;23.10;37.70;;;;;;2625524;52;21653;-88
2022/06/16 00:21:29;;;;;;;1.73;0.80;;;23.10;37.80;;;;;;2625755;52;20937;-86
2022/06/16 00:23:55;;;;;;;1.58;0.82;;;23.20;38.00;;;;;;2373411;53;21220;-87
2022/06/16 00:26:23;;;;;;;2.22;0.98;;;23.20;37.90;;;;;;2623187;52;20946;-85
2022/06/16 00:28:50;;;;;;;2.40;1.00;;;23.00;38.00;;;;;;2622527;52;21076;-85
2022/06/16 00:31:18;;;;;;;3.17;1.20;;;23.00;38.30;;;;;;2622875;52;21395;-86
2022/06/16 00:33:45;;;;;;;2.20;1.00;;;23.00;38.40;;;;;;2622302;52;21910;-86
2022/06/16 00:36:11;;;;;;;1.65;0.80;;;22.90;38.30;;;;;;2621725;52;21005;-85
2022/06/16 00:38:38;;;;;;;2.75;1.30;;;22.90;38.30;;;;;;2372294;53;20941;-86
2022/06/16 00:41:05;;;;;;;1.48;0.70;;;22.90;38.50;;;;;;2624727;52;21065;-85
2022/06/16 00:43:31;;;;;;;1.65;0.88;;;22.80;38.40;;;;;;2378178;53;21456;-85
2022/06/16 00:46:01;;;;;;;2.50;0.90;;;22.80;38.50;;;;;;2372805;53;20914;-86
2022/06/16 00:48:38;;;;;;;2.78;1.00;;;22.80;38.70;;;;;;2619941;52;20920;-90
2022/06/16 00:51:24;;;;;;;2.37;0.95;;;22.80;39.00;;;;;;2372702;53;21531;-88
2022/06/16 00:53:51;;;;;;;2.42;1.00;;;22.80;39.10;;;;;;2379035;53;21021;-86
2022/06/16 00:56:18;;;;;;;2.28;1.08;;;22.70;38.90;;;;;;2374883;53;20893;-86
2022/06/16 00:58:50;;;;;;;2.67;1.05;;;22.70;39.00;;;;;;2622809;52;20910;-84
2022/06/16 01:01:20;;;;;;;1.98;1.05;;;22.70;39.10;;;;;;2624174;52;20985;-84
2022/06/16 01:06:32;;;;;;;1.98;0.93;;;22.60;39.20;;;;;;2623824;52;21004;-87
2022/06/16 01:09:14;;;;;;;2.67;1.10;;;22.60;39.30;;;;;;2625268;52;21852;-87
2022/06/16 01:18:44;;;;;;;3.50;1.30;;;22.60;39.70;;;;;;2374744;53;20953;-83
2022/06/16 01:21:26;;;;;;;2.40;0.80;;;22.70;39.70;;;;;;2624172;52;20894;-85
2022/06/16 01:24:07;;;;;;;;;;;22.60;39.80;;;;;;2626100;52;20938;-83
2022/06/16 01:30:05;;;;;;;1.73;0.77;;;22.60;39.90;;;;;;2372975;53;20050;-83
2022/06/16 01:39:22;;;;;;;1.90;0.77;;;22.70;40.20;;;;;;2625571;52;21504;-86
2022/06/16 01:41:54;;;;;;;1.37;0.68;;;22.60;39.90;;;;;;2623258;52;21028;-84
2022/06/16 01:44:36;;;;;;;2.08;1.02;;;22.70;40.00;;;;;;2372877;53;21204;-85
2022/06/16 01:47:12;;;;;;;2.80;0.95;;;22.60;40.40;;;;;;2623280;52;20898;-87
2022/06/16 01:49:42;;;;;;;2.00;0.90;;;22.70;40.30;;;;;;2624109;52;21717;-84
2022/06/16 01:52:28;;;;;;;2.80;1.20;;;22.60;40.10;;;;;;2624783;52;20988;-87
2022/06/16 01:55:01;;;;;;;2.40;1.20;;;22.60;40.30;;;;;;2622659;52;20970;-89
2022/06/16 01:57:31;;;;;;;;;;;22.60;40.70;;;;;;2376631;53;20922;-86
2022/06/16 02:00:18;;;;;;;2.33;1.10;;;22.70;40.90;;;;;;2379453;53;20102;-89
2022/06/16 02:02:44;;;;;;;2.47;1.20;;;22.70;41.20;;;;;;2373120;53;20981;-84
2022/06/16 02:05:18;;;;;;;4.12;0.98;;;22.70;40.70;;;;;;2372601;53;20926;-86
2022/06/16 02:08:03;;;;;;;2.75;1.10;;;22.70;40.70;;;;;;2627317;52;21811;-86
2022/06/16 02:10:32;;;;;;;2.75;1.00;;;22.70;41.00;;;;;;2623462;52;20917;-84
2022/06/16 02:12:58;;;;;;;2.60;1.02;;;22.70;40.70;;;;;;2371694;53;20910;-86
2022/06/16 02:15:41;;;;;;;3.60;1.23;;;22.70;40.70;;;;;;2385399;53;20914;-84
2022/06/16 02:18:09;;;;;;;2.00;1.00;;;22.70;41.60;;;;;;2627730;52;20982;-83
2022/06/16 02:21:57;;;;;;;2.70;1.33;;;22.70;41.10;;;;;;2626506;52;21049;-85
2022/06/16 02:24:24;;;;;;;2.83;1.30;;;22.70;41.70;;;;;;2373340;53;20988;-87
2022/06/16 02:26:54;;;;;;;2.97;1.20;;;22.70;41.10;;;;;;2380555;53;21012;-87
2022/06/16 02:29:34;;;;;;;2.55;1.20;;;22.70;41.20;;;;;;2627862;52;20905;-84
2022/06/16 02:33:22;;;;;;;2.72;1.30;;;22.70;41.40;;;;;;2374355;53;20985;-86
2022/06/16 02:36:16;;;;;;;1.95;1.10;;;22.70;41.50;;;;;;2628522;52;20970;-85
2022/06/16 02:42:01;;;;;;;2.12;1.00;;;22.70;41.60;;;;;;2373977;53;21355;-86
2022/06/16 02:44:43;;;;;;;1.90;1.10;;;22.70;41.50;;;;;;2623314;52;20916;-87
2022/06/16 02:47:17;;;;;;;;;;;22.70;41.40;;;;;;2384325;53;25652;-86
2022/06/16 02:50:02;;;;;;;2.53;0.93;;;22.70;41.40;;;;;;2373196;53;20069;-83
2022/06/16 02:52:38;;;;;;;2.97;1.37;;;22.70;41.70;;;;;;2372433;53;20952;-88
2022/06/16 02:55:16;;;;;;;2.40;1.08;;;22.60;41.60;;;;;;2623461;52;20910;-85
2022/06/16 02:57:57;;;;;;;2.97;1.15;;;22.60;41.80;;;;;;2372600;53;21031;-85
2022/06/16 03:00:34;;;;;;;3.90;1.60;;;22.60;42.70;;;;;;2373274;53;20945;-84
2022/06/16 03:03:15;;;;;;;3.17;1.20;;;22.60;41.90;;;;;;2623194;52;20969;-84
2022/06/16 03:05:41;;;;;;;2.10;1.08;;;22.60;42.90;;;;;;2624029;52;20937;-85
2022/06/16 03:08:08;;;;;;;2.20;1.20;;;22.50;41.90;;;;;;2622868;52;20930;-85
2022/06/16 03:10:52;;;;;;;2.53;1.30;;;22.60;42.00;;;;;;2624791;52;21057;-87
2022/06/16 03:13:22;;;;;;;3.62;1.23;;;22.50;41.90;;;;;;2626754;52;21556;-87
2022/06/16 03:15:49;;;;;;;2.78;1.30;;;22.50;42.10;;;;;;2624733;52;20906;-85
2022/06/16 03:18:16;;;;;;;2.45;1.25;;;22.60;42.20;;;;;;2626703;52;20910;-87
2022/06/16 03:20:42;;;;;;;2.55;1.20;;;22.60;42.20;;;;;;2373763;53;21448;-88
2022/06/16 03:23:09;;;;;;;2.65;1.25;;;22.60;42.20;;;;;;2623818;52;20937;-88
2022/06/16 03:25:35;;;;;;;2.30;1.30;;;22.60;42.20;;;;;;2628135;52;20914;-86
2022/06/16 03:28:01;;;;;;;2.35;1.15;;;22.60;42.40;;;;;;2626635;52;20918;-86
2022/06/16 03:30:28;;;;;;;3.72;1.75;;;22.60;42.40;;;;;;2598570;52;20934;-87
2022/06/16 03:32:54;;;;;;;3.03;1.33;;;22.60;42.30;;;;;;2627067;52;20946;-87
2022/06/16 03:35:20;;;;;;;2.28;1.17;;;22.60;42.50;;;;;;2384808;53;21009;-84
2022/06/16 03:37:46;;;;;;;3.37;1.40;;;22.60;42.50;;;;;;2372749;53;20933;-86
2022/06/16 03:40:13;;;;;;;2.85;1.23;;;22.70;42.60;;;;;;2621250;52;21025;-84
2022/06/16 03:42:40;;;;;;;2.55;1.30;;;22.70;42.60;;;;;;2371377;53;21055;-86
2022/06/16 03:45:07;;;;;;;2.47;1.25;;;22.70;42.60;;;;;;2621897;52;20952;-83
2022/06/16 03:47:33;;;;;;;2.40;1.20;;;22.70;42.60;;;;;;2622001;52;21787;-87
2022/06/16 03:50:00;;;;;;;2.25;1.17;;;22.70;42.60;;;;;;2623520;52;20974;-90
2022/06/16 03:52:26;;;;;;;2.37;1.10;;;22.70;42.50;;;;;;2623341;52;21119;-88
2022/06/16 03:54:53;;;;;;;3.05;1.00;;;22.70;42.50;;;;;;2627183;52;21025;-86
2022/06/16 03:57:20;;;;;;;3.37;1.42;;;22.70;42.50;;;;;;2374571;53;20985;-87
2022/06/16 03:59:46;;;;;;;3.62;1.40;;;22.70;42.50;;;;;;2623270;52;20926;-86
2022/06/16 04:02:12;;;;;;;2.60;1.45;;;22.80;42.70;;;;;;2624690;52;20937;-87
2022/06/16 04:04:39;;;;;;;2.53;1.40;;;22.80;42.70;;;;;;2381376;53;20922;-87
2022/06/16 04:07:05;;;;;;;2.67;1.23;;;22.80;42.80;;;;;;2625818;52;20898;-84
2022/06/16 04:09:32;;;;;;;3.83;1.40;;;22.80;42.90;;;;;;2377831;53;21380;-86
2022/06/16 04:11:58;;;;;;;3.12;1.30;;;22.90;43.00;;;;;;2626453;52;20937;-84
2022/06/16 04:14:24;;;;;;;2.72;1.40;;;22.80;43.10;;;;;;2621763;52;20977;-85
2022/06/16 04:16:52;;;;;;;3.80;1.33;;;22.80;43.20;;;;;;2372488;53;21385;-86
2022/06/16 04:19:19;;;;;;;2.60;1.33;;;22.90;43.30;;;;;;2622799;52;20990;-84
2022/06/16 04:21:45;;;;;;;2.62;1.20;;;22.90;43.30;;;;;;2372117;53;20937;-85
2022/06/16 04:24:12;;;;;;;2.72;1.40;;;22.90;43.40;;;;;;2623406;52;20906;-87
2022/06/16 04:26:38;;;;;;;2.95;1.45;;;22.80;43.30;;;;;;2621919;52;20945;-84
2022/06/16 04:29:08;;;;;;;2.58;1.30;;;23.00;43.50;;;;;;2623269;52;20921;-84
2022/06/16 04:31:35;;;;;;;2.80;1.37;;;23.00;43.90;;;;;;2381406;53;20918;-86
2022/06/16 04:34:01;;;;;;;3.28;1.48;;;23.00;43.80;;;;;;2622259;52;20926;-88
2022/06/16 04:36:27;;;;;;;3.97;1.52;;;23.00;43.70;;;;;;2380016;53;21025;-88
2022/06/16 04:38:54;;;;;;;3.03;1.58;;;23.00;43.70;;;;;;2374227;53;22216;-85
2022/06/16 04:41:22;;;;;;;3.60;1.60;;;23.10;43.70;;;;;;2374118;53;20950;-87
2022/06/16 04:43:51;;;;;;;2.22;1.23;;;23.10;43.70;;;;;;2620758;52;21813;-85
2022/06/16 04:46:18;;;;;;;3.30;1.95;;;23.10;43.70;;;;;;2370181;53;21005;-88
2022/06/16 04:48:45;;;;;;;3.78;1.55;;;23.10;43.90;;;;;;2621469;52;20930;-86
2022/06/16 04:51:12;;;;;;;2.85;1.52;;;23.20;43.90;;;;;;2621680;52;21567;-85
2022/06/16 04:53:39;;;;;;;3.25;1.40;;;23.20;44.10;;;;;;2371397;53;20958;-87
2022/06/16 04:56:06;;;;;;;2.62;1.30;;;23.20;44.30;;;;;;2371729;53;22294;-86
2022/06/16 04:58:32;;;;;;;3.22;1.52;;;23.20;44.20;;;;;;2619538;52;20958;-87
2022/06/16 05:00:59;;;;;;;4.07;1.80;;;23.20;44.30;;;;;;2378355;53;21030;-84
2022/06/16 05:03:44;;;;;;;3.62;1.62;;;23.20;44.40;;;;;;2620270;52;20945;-88
2022/06/16 05:06:10;;;;;;;2.72;1.50;;;23.30;44.50;;;;;;2621301;52;21020;-87
2022/06/16 05:08:37;;;;;;;3.22;1.70;;;23.40;44.60;;;;;;2620173;52;20910;-84
2022/06/16 05:11:03;;;;;;;3.00;1.65;;;23.30;44.50;;;;;;2620013;52;21013;-85
2022/06/16 05:13:29;;;;;;;3.25;1.58;;;23.40;44.60;;;;;;2621372;52;20982;-86
2022/06/16 05:15:56;;;;;;;3.60;1.70;;;23.40;44.70;;;;;;2382416;53;20942;-85
2022/06/16 05:18:22;;;;;;;3.58;1.80;;;23.40;44.70;;;;;;2626796;52;20973;-84
2022/06/16 05:20:48;;;;;;;4.37;1.62;;;23.50;44.90;;;;;;2621769;52;20953;-85
2022/06/16 05:23:15;;;;;;;3.53;1.58;;;23.50;45.10;;;;;;2379563;53;22076;-85
2022/06/16 05:25:41;;;;;;;2.80;1.60;;;23.50;45.10;;;;;;2371694;53;21053;-85
2022/06/16 05:28:07;;;;;;;3.08;1.52;;;23.60;45.10;;;;;;2370076;53;21005;-84
2022/06/16 05:30:34;;;;;;;3.28;1.80;;;23.60;45.10;;;;;;2622150;52;20961;-83
2022/06/16 05:33:00;;;;;;;4.18;1.70;;;23.60;45.20;;;;;;2371658;53;20965;-88
2022/06/16 05:35:26;;;;;;;3.67;1.52;;;23.70;45.30;;;;;;2372895;53;20918;-83
2022/06/16 05:37:53;;;;;;;2.90;1.60;;;23.70;45.30;;;;;;2623889;52;20998;-83
2022/06/16 05:40:19;;;;;;;3.03;1.70;;;23.80;45.40;;;;;;2627531;52;20981;-85
2022/06/16 05:42:45;;;;;;;3.65;1.80;;;23.80;45.40;;;;;;2356309;53;21566;-86
2022/06/16 05:45:12;;;;;;;3.25;1.77;;;23.90;45.40;;;;;;2373221;53;22031;-85
2022/06/16 05:47:41;;;;;;;3.35;1.70;;;23.90;45.40;;;;;;2371334;53;20972;-86
2022/06/16 05:50:08;;;;;;;3.33;1.60;;;23.90;45.20;;;;;;2621419;52;20981;-87
2022/06/16 05:52:34;;;;;;;3.28;1.83;;;24.00;45.30;;;;;;2370306;53;21005;-88
2022/06/16 05:55:00;;;;;;;3.67;2.00;;;24.00;45.40;;;;;;2371708;53;21702;-85
2022/06/16 05:57:27;;;;;;;4.32;1.65;;;24.00;45.60;;;;;;2622529;52;21853;-85
2022/06/16 05:59:53;;;;;;;3.85;1.70;;;24.10;45.80;;;;;;2367070;53;20953;-80
2022/06/16 06:02:19;;;;;;;2.95;1.60;;;24.10;45.80;;;;;;2617617;52;20993;-81
2022/06/16 06:04:48;;;;;;;3.28;1.62;;;24.20;45.90;;;;;;2621708;52;20966;-83
2022/06/16 06:07:15;;;;;;;4.70;1.90;;;24.20;46.10;;;;;;2619064;52;20994;-82
2022/06/16 06:18:38;;;;;;;3.97;1.80;;;24.50;46.50;;;;;;2623018;52;21077;-83
2022/06/16 06:21:04;;;;;;;3.50;1.73;;;24.60;46.60;;;;;;2623999;52;20968;-83
2022/06/16 06:23:30;;;;;;;3.15;1.85;;;24.70;46.60;;;;;;2621477;52;20973;-84
2022/06/16 06:25:57;;;;;;;4.05;2.20;;;24.70;46.50;;;;;;2373218;53;20949;-80
2022/06/16 06:28:23;;;;;;;3.92;2.12;;;24.80;46.70;;;;;;2616365;52;20974;-82
2022/06/16 06:30:49;;;;;;;3.15;1.98;;;24.90;47.10;;;;;;2374052;53;21214;-82
2022/06/16 06:33:15;;;;;;;3.67;1.90;;;25.00;47.30;;;;;;2617566;52;20969;-83
2022/06/16 06:35:42;;;;;;;2.78;1.62;;;25.10;47.40;;;;;;2619361;52;20994;-82
2022/06/16 06:38:08;;;;;;;3.40;2.00;;;25.10;47.50;;;;;;2366262;53;21088;-81
2022/06/16 06:40:35;;;;;;;5.82;1.95;;;25.20;47.50;;;;;;2374733;53;20949;-81
2022/06/16 06:43:01;;;;;;;3.20;1.62;;;25.30;47.70;;;;;;2377091;53;21300;-83
2022/06/16 06:45:27;;;;;;;4.03;1.65;;;25.40;47.60;;;;;;2619380;52;20909;-83
2022/06/16 06:47:54;;;;;;;3.15;2.00;;;25.50;47.50;;;;;;2378873;53;21030;-82
2022/06/16 06:50:25;;;;;;;3.45;1.90;;;25.50;47.70;;;;;;2615439;52;21003;-81
2022/06/16 06:52:52;;;;;;;3.50;2.10;;;25.60;47.90;;;;;;2379411;53;20997;-82
2022/06/16 06:55:18;;;;;;;3.33;1.87;;;25.70;47.60;;;;;;2613633;52;21005;-83
2022/06/16 06:57:44;;;;;;;4.03;2.15;;;25.80;47.70;;;;;;2378421;53;20990;-81
2022/06/16 07:00:13;;;;;;;3.45;2.05;;;25.90;47.30;;;;;;2622787;52;21009;-81
2022/06/16 07:02:40;;;;;;;3.22;1.83;;;26.00;47.20;;;;;;2622778;52;20902;-84
2022/06/16 07:05:06;;;;;;;4.80;1.95;;;26.00;47.30;;;;;;2377322;53;20962;-83
2022/06/16 07:07:33;;;;;;;3.78;1.87;;;26.10;47.10;;;;;;2373057;53;21001;-83
2022/06/16 07:09:59;;;;;;;3.30;1.95;;;26.20;46.80;;;;;;2617228;52;20921;-84
2022/06/16 07:12:25;;;;;;;3.37;1.62;;;26.30;46.60;;;;;;2368873;53;20977;-83
2022/06/16 07:14:52;;;;;;;4.25;1.80;;;26.40;46.80;;;;;;2372097;53;21016;-81
2022/06/16 07:17:20;;;;;;;3.78;1.90;;;26.50;46.60;;;;;;2374058;53;20966;-85
2022/06/16 07:19:46;;;;;;;3.90;2.10;;;26.60;46.80;;;;;;2376219;53;20926;-82
2022/06/16 07:22:12;;;;;;;4.95;1.77;;;26.70;47.00;;;;;;2375980;53;20953;-84
2022/06/16 07:24:39;;;;;;;4.93;1.77;;;26.70;46.70;;;;;;2378950;53;20970;-85
2022/06/16 07:27:06;;;;;;;4.62;2.00;;;26.80;46.70;;;;;;2619845;52;20997;-81
2022/06/16 07:29:32;;;;;;;4.50;1.92;;;26.90;46.50;;;;;;2617935;52;20922;-83
2022/06/16 07:32:01;;;;;;;3.35;1.90;;;27.00;46.30;;;;;;2621568;52;21359;-82
2022/06/16 07:34:27;;;;;;;4.50;1.83;;;27.10;46.30;;;;;;2377163;53;20922;-84
2022/06/16 07:36:54;;;;;;;3.85;2.00;;;27.20;46.30;;;;;;2621833;52;20982;-82
2022/06/16 07:39:20;;;;;;;2.97;1.67;;;27.30;46.60;;;;;;2614931;52;21810;-82
2022/06/16 07:41:47;;;;;;;4.20;1.75;;;27.40;46.70;;;;;;2353668;53;20969;-82
2022/06/16 07:44:16;;;;;;;4.05;1.85;;;27.60;46.50;;;;;;2376708;53;21472;-87
2022/06/16 07:46:43;;;;;;;3.55;1.90;;;27.70;46.20;;;;;;2371288;53;20992;-84
2022/06/16 07:49:11;;;;;;;3.67;2.22;;;27.80;46.00;;;;;;2620980;52;21598;-84
2022/06/16 07:51:38;;;;;;;5.07;1.85;;;27.90;45.90;;;;;;2368911;53;20990;-81
2022/06/16 07:54:07;;;;;;;3.08;1.80;;;28.00;45.90;;;;;;2376986;53;20913;-83
2022/06/16 07:56:33;;;;;;;3.62;2.00;;;28.10;45.80;;;;;;2377593;53;20922;-82
2022/06/16 07:58:59;;;;;;;4.85;2.08;;;28.10;45.70;;;;;;2377136;53;20965;-81
2022/06/16 08:01:25;;;;;;;3.15;1.80;;;28.20;45.80;;;;;;2368604;53;20941;-80
2022/06/16 08:03:52;;;;;;;4.22;1.80;;;28.30;45.80;;;;;;2620048;52;20938;-79
2022/06/16 08:06:20;;;;;;;4.68;1.87;;;28.40;46.40;;;;;;2368950;53;20914;-79
2022/06/16 08:08:46;;;;;;;3.37;1.92;;;28.50;45.50;;;;;;2625995;52;20978;-83
2022/06/16 08:13:57;;;;;;;4.40;1.80;;;28.60;45.10;;;;;;2621372;52;21001;-82
2022/06/16 08:16:24;;;;;;;3.62;1.75;;;28.70;45.10;;;;;;2368905;53;20989;-80
2022/06/16 08:18:50;;;;;;;4.93;1.90;;;28.70;45.00;;;;;;2373946;53;24862;-81
2022/06/16 08:21:16;;;;;;;3.92;1.80;;;28.80;45.10;;;;;;2622110;52;20962;-82
2022/06/16 08:23:44;;;;;;;3.62;1.75;;;28.90;45.00;;;;;;2622690;52;20965;-81
2022/06/16 08:26:10;;;;;;;3.80;1.95;;;29.00;44.90;;;;;;2377931;53;20957;-80
2022/06/16 08:28:38;;;;;;;5.55;1.90;;;29.10;44.70;;;;;;2623498;52;20938;-81
2022/06/16 08:31:05;;;;;;;3.03;1.58;;;29.10;44.30;;;;;;2367588;53;20930;-80
2022/06/16 08:33:31;;;;;;;4.82;1.92;;;29.20;44.10;;;;;;2368966;53;20926;-84
2022/06/16 08:35:58;;;;;;;3.15;1.37;;;29.30;43.90;;;;;;2596575;52;21029;-82
2022/06/16 08:38:24;;;;;;;2.72;1.50;;;29.30;43.60;;;;;;2621153;52;21832;-81
2022/06/16 08:41:11;;;;;;;3.65;1.95;;;29.40;43.40;;;;;;2372893;53;20926;-85
2022/06/16 08:43:47;;;;;;;3.15;1.70;;;29.40;43.10;;;;;;2622998;52;20902;-84
2022/06/16 08:46:15;;;;;;;3.05;1.58;;;29.50;42.80;;;;;;2374422;53;21460;-84
2022/06/16 08:48:58;;;;;;;3.20;1.62;;;29.60;42.80;;;;;;2621544;52;20957;-86
2022/06/16 08:52:02;;;;;;;5.18;1.80;;;29.60;42.40;;;;;;2374799;53;20934;-85
2022/06/16 08:54:53;;;;;;;3.40;1.65;;;29.70;42.50;;;;;;2382240;53;20890;-85
2022/06/16 09:00:16;;;;;;;3.00;1.52;;;29.70;42.20;;;;;;2625132;52;20949;-85
2022/06/16 09:03:08;;;;;;;3.35;1.42;;;29.80;42.50;;;;;;2625873;52;21569;-84
2022/06/16 09:06:30;;;;;;;2.70;1.60;;;29.90;42.00;;;;;;2626319;52;21001;-86
2022/06/16 09:12:34;;;;;;;3.35;1.67;;;30.00;41.20;;;;;;2625192;52;20929;-86
2022/06/16 09:15:37;;;;;;;4.55;1.58;;;30.00;41.10;;;;;;2379377;53;20914;-86
2022/06/16 09:18:56;;;;;;;4.53;1.87;;;30.00;40.80;;;;;;2382351;53;20914;-89
2022/06/16 09:24:42;;;;;;;3.10;1.80;;;30.10;40.70;;;;;;2373806;53;20942;-86
2022/06/16 09:27:46;;;;;;;3.15;1.92;;;30.10;40.50;;;;;;2364380;53;21014;-87
2022/06/16 09:30:17;;;;;;;6.25;2.05;;;30.00;40.40;;;;;;2632395;52;20933;-86
2022/06/16 09:34:25;;;;;;;3.60;1.92;;;30.20;40.80;;;;;;2625279;52;20961;-86
2022/06/16 09:36:57;;;;;;;2.83;1.60;;;30.30;41.10;;;;;;2626425;52;20910;-87
2022/06/16 09:39:34;;;;;;;;;;;30.30;41.10;;;;;;2634828;52;20886;-86
2022/06/16 09:42:32;;;;;;;4.47;2.00;;;30.30;41.10;;;;;;2623664;52;20105;-86
2022/06/16 09:45:21;;;;;;;4.07;1.73;;;30.40;41.30;;;;;;2626508;52;20906;-87
2022/06/16 09:49:12;;;;;;;3.08;1.62;;;30.40;41.00;;;;;;2626199;52;21409;-86
2022/06/16 09:51:47;;;;;;;3.47;1.75;;;30.40;41.00;;;;;;2375778;53;20842;-86
2022/06/16 09:54:17;;;;;;;2.58;1.50;;;30.50;40.40;;;;;;2626078;52;20906;-85
2022/06/16 09:57:29;;;;;;;3.37;1.70;;;30.50;40.10;;;;;;2624242;52;21006;-86
2022/06/16 09:59:59;;;;;;;3.70;1.70;;;30.60;40.00;;;;;;2623613;52;20954;-85
2022/06/16 10:02:32;;;;;;;3.15;1.48;;;30.60;39.60;;;;;;2624833;52;20929;-86
2022/06/16 10:04:59;;;;;;;3.33;1.27;;;30.60;39.50;;;;;;2625897;52;21855;-88
2022/06/16 10:09:21;;;;;;;3.30;1.87;;;30.70;39.60;;;;;;2630075;52;21127;-85
2022/06/16 10:12:07;;;;;;;2.70;1.30;;;30.70;39.20;;;;;;2625787;52;20997;-86
2022/06/16 10:14:41;;;;;;;3.17;1.25;;;30.80;39.00;;;;;;2381051;53;21369;-87
2022/06/16 10:17:09;;;;;;;4.30;1.40;;;30.80;39.00;;;;;;2630420;52;20950;-86
2022/06/16 10:19:38;;;;;;;3.95;1.50;;;30.80;39.00;;;;;;2376656;53;20906;-87
2022/06/16 10:22:05;;;;;;;2.87;1.58;;;30.90;38.90;;;;;;2623532;52;20933;-87
2022/06/16 10:24:37;;;;;;;3.10;1.87;;;30.90;38.80;;;;;;2374108;53;20906;-85
2022/06/16 10:27:04;;;;;;;3.60;2.03;;;31.00;38.70;;;;;;2625618;52;20969;-87
2022/06/16 10:29:34;;;;;;;4.35;2.20;;;31.00;38.70;;;;;;2624835;52;20922;-86
2022/06/16 10:32:01;;;;;;;5.90;1.70;;;31.00;38.40;;;;;;2375502;53;20936;-86
2022/06/16 10:34:38;;;;;;;3.00;1.40;;;31.10;38.10;;;;;;2626414;52;20882;-87
2022/06/16 10:37:18;;;;;;;2.28;1.30;;;31.10;37.50;;;;;;2374272;53;21324;-85
2022/06/16 10:39:55;;;;;;;3.08;1.40;;;31.20;37.30;;;;;;2374072;53;20989;-85
2022/06/16 10:42:42;;;;;;;2.65;1.23;;;31.20;37.20;;;;;;2628414;52;20990;-85
2022/06/16 10:45:11;;;;;;;3.47;1.62;;;31.30;37.20;;;;;;2380531;53;20937;-84
2022/06/16 10:47:47;;;;;;;2.95;1.40;;;31.30;37.20;;;;;;2375826;53;21574;-85
2022/06/16 10:50:23;;;;;;;2.92;1.30;;;31.30;37.00;;;;;;2374992;53;21798;-85
2022/06/16 10:54:27;;;;;;;3.22;1.20;;;31.40;36.80;;;;;;2375009;53;21036;-86
2022/06/16 10:57:13;;;;;;;3.62;1.30;;;31.40;37.00;;;;;;2628541;52;21941;-85
2022/06/16 10:59:45;;;;;;;2.55;1.33;;;31.50;36.50;;;;;;2628522;52;20905;-86
2022/06/16 11:02:25;;;;;;;3.40;1.05;;;31.50;36.80;;;;;;2372901;53;20945;-86
2022/06/16 11:05:01;;;;;;;2.62;1.20;;;31.50;36.80;;;;;;2361326;53;20914;-87
2022/06/16 11:07:33;;;;;;;2.50;1.23;;;31.60;36.50;;;;;;2622963;52;20961;-86
2022/06/16 11:10:01;;;;;;;2.53;1.25;;;31.60;36.60;;;;;;2627043;52;21009;-86
2022/06/16 11:12:28;;;;;;;2.65;1.40;;;31.70;36.30;;;;;;2373819;53;20921;-86
2022/06/16 11:15:11;;;;;;;2.92;1.40;;;31.70;36.10;;;;;;2625249;52;20970;-85
2022/06/16 11:17:40;;;;;;;2.80;1.08;;;31.70;35.80;;;;;;2625663;52;20973;-86
2022/06/16 11:21:13;;;;;;;3.05;1.20;;;31.80;36.10;;;;;;2625750;52;20914;-87
2022/06/16 11:23:46;;;;;;;2.08;1.10;;;31.90;36.00;;;;;;2625007;52;20914;-85
2022/06/16 11:26:46;;;;;;;4.40;1.40;;;31.90;36.10;;;;;;2625851;52;20922;-87
2022/06/16 11:29:35;;;;;;;2.60;1.15;;;31.90;35.60;;;;;;2616116;52;21008;-86
2022/06/16 11:32:07;;;;;;;5.93;1.40;;;32.00;35.70;;;;;;2623753;52;20936;-86
2022/06/16 11:34:34;;;;;;;2.50;1.10;;;32.00;35.80;;;;;;2630540;52;21006;-86
2022/06/16 11:37:34;;;;;;;2.33;1.20;;;32.00;35.60;;;;;;2630351;52;20895;-85
2022/06/16 11:40:19;;;;;;;2.40;1.30;;;32.10;35.60;;;;;;2376059;53;20950;-87
2022/06/16 11:43:18;;;;;;;2.70;1.37;;;32.10;35.10;;;;;;2625584;52;20977;-87
2022/06/16 11:46:06;;;;;;;2.62;1.27;;;32.20;35.20;;;;;;2374255;53;20938;-85
2022/06/16 11:50:16;;;;;;;3.28;1.65;;;32.20;35.50;;;;;;2624957;52;20952;-85
2022/06/16 12:00:24;;;;;;;3.08;1.30;;;32.30;35.40;;;;;;2623385;52;20941;-86
2022/06/16 12:07:50;;;;;;;5.22;1.67;;;32.40;35.60;;;;;;2374622;53;20937;-86
2022/06/16 12:12:06;;;;;;;3.35;1.02;;;32.50;35.20;;;;;;2623323;52;20922;-85
2022/06/16 12:15:34;;;;;;;2.75;1.10;;;32.60;34.90;;;;;;2627876;52;20925;-85
2022/06/16 12:18:53;;;;;;;2.95;1.10;;;32.60;35.30;;;;;;2374331;53;21679;-86
2022/06/16 12:22:04;;;;;;;2.72;1.23;;;32.60;34.80;;;;;;2630697;52;20906;-87
2022/06/16 12:27:12;;;;;;;2.55;1.20;;;32.70;34.70;;;;;;2373856;53;20943;-86
2022/06/16 12:29:57;;;;;;;4.00;1.15;;;32.70;34.60;;;;;;2381411;53;22017;-86
2022/06/16 12:32:40;;;;;;;2.55;1.15;;;32.80;34.00;;;;;;2627674;52;21292;-86
2022/06/16 12:36:34;;;;;;;2.92;1.20;;;32.80;34.00;;;;;;2627152;52;20934;-86
2022/06/16 12:39:18;;;;;;;2.50;1.40;;;32.80;34.20;;;;;;2373540;53;20933;-86
2022/06/16 12:41:48;;;;;;;3.17;1.60;;;32.90;33.90;;;;;;2627652;52;20974;-86
2022/06/16 12:44:28;;;;;;;2.90;1.40;;;32.90;34.00;;;;;;2359212;53;21273;-85
2022/06/16 12:49:54;;;;;;;2.80;1.30;;;33.00;33.90;;;;;;2628479;52;20930;-86
2022/06/16 12:53:55;;;;;;;1.92;0.95;;;33.00;33.90;;;;;;2374041;53;20957;-84
2022/06/16 12:56:38;;;;;;;6.87;1.30;;;33.10;33.40;;;;;;2373915;53;21200;-86
2022/06/16 12:59:16;;;;;;;2.58;1.10;;;33.10;32.20;;;;;;2374055;53;20914;-85
2022/06/16 13:01:43;;;;;;;2.67;1.12;;;33.10;32.20;;;;;;2624639;52;20914;-86
2022/06/16 13:04:16;;;;;;;2.35;1.17;;;33.20;32.20;;;;;;2374063;53;20984;-86
2022/06/16 13:06:44;;;;;;;4.30;1.15;;;33.20;31.40;;;;;;2629369;52;20897;-84
2022/06/16 13:09:14;;;;;;;2.42;1.20;;;33.20;31.40;;;;;;2626461;52;21045;-86
2022/06/16 13:12:30;;;;;;;2.60;1.10;;;33.20;31.50;;;;;;2625951;52;20894;-86
2022/06/16 13:14:59;;;;;;;2.37;0.98;;;33.20;31.00;;;;;;2451604;52;2064255;-86
2022/06/16 13:17:29;;;;;;;2.22;1.00;;;33.20;31.00;;;;;;2375192;53;20994;-86
2022/06/16 13:19:59;;;;;;;3.92;1.08;;;33.30;31.60;;;;;;2623882;52;20981;-85
2022/06/16 13:22:39;;;;;;;2.17;0.95;;;33.30;30.60;;;;;;2373878;53;20910;-86
2022/06/16 13:25:14;;;;;;;2.20;1.10;;;33.30;30.20;;;;;;2374047;53;21837;-85
2022/06/16 13:27:46;;;;;;;3.17;1.12;;;33.40;29.80;;;;;;2622489;52;20942;-84
2022/06/16 13:30:39;;;;;;;2.20;1.00;;;33.40;29.90;;;;;;2622634;52;21004;-85
2022/06/16 13:33:18;;;;;;;2.25;0.90;;;33.40;29.60;;;;;;2621692;52;21503;-84
2022/06/16 13:35:50;;;;;;;2.40;1.08;;;33.50;29.40;;;;;;2377258;53;21356;-85
2022/06/16 13:38:20;;;;;;;;;;;33.50;29.80;;;;;;2625749;52;22802;-86
2022/06/16 13:40:46;;;;;;;3.58;0.90;;;33.50;30.00;;;;;;2624169;52;20093;-85
2022/06/16 13:43:17;;;;;;;2.00;0.90;;;33.50;29.80;;;;;;2373935;53;20925;-85
2022/06/16 13:45:57;;;;;;;2.37;1.08;;;33.60;29.30;;;;;;2622989;52;20925;-85
2022/06/16 13:50:39;;;;;;;3.00;1.00;;;33.60;28.90;;;;;;2372519;53;21437;-84
2022/06/16 13:53:06;;;;;;;2.08;1.05;;;33.70;29.60;;;;;;2372790;53;20929;-84
2022/06/16 13:55:37;;;;;;;2.42;1.10;;;33.70;29.70;;;;;;2374091;53;20929;-86
2022/06/16 13:58:12;;;;;;;2.65;0.82;;;33.70;29.60;;;;;;2626132;52;20933;-86
2022/06/16 14:00:39;;;;;;;3.00;0.98;;;33.70;29.50;;;;;;2374392;53;20981;-86
2022/06/16 14:03:06;;;;;;;3.00;1.10;;;33.70;29.60;;;;;;2625885;52;21416;-84
2022/06/16 14:05:34;;;;;;;5.28;1.08;;;33.70;29.70;;;;;;2625318;52;20937;-84
2022/06/16 14:08:05;;;;;;;2.87;1.30;;;33.80;29.70;;;;;;2624451;52;20901;-84
2022/06/16 14:10:34;;;;;;;2.35;1.12;;;33.80;29.60;;;;;;2625415;52;20949;-86
2022/06/16 14:13:33;;;;;;;2.70;1.25;;;33.90;29.40;;;;;;2371304;53;20949;-85
2022/06/16 14:16:21;;;;;;;2.12;1.00;;;33.90;29.30;;;;;;2622734;52;20989;-85
2022/06/16 14:19:03;;;;;;;2.70;1.12;;;33.90;29.10;;;;;;2623263;52;20910;-86
2022/06/16 14:22:16;;;;;;;2.78;1.00;;;33.90;29.20;;;;;;2374761;53;20917;-87
2022/06/16 14:26:05;;;;;;;1.37;0.68;;;34.00;29.40;;;;;;2624348;52;20933;-87
2022/06/16 14:28:37;;;;;;;2.45;0.88;;;34.00;29.50;;;;;;2378201;53;21057;-86
2022/06/16 14:31:23;;;;;;;2.70;1.08;;;34.00;29.10;;;;;;2358684;53;20974;-85
2022/06/16 14:33:53;;;;;;;2.87;1.00;;;34.00;28.90;;;;;;2374275;53;20906;-88
2022/06/16 14:36:23;;;;;;;4.07;1.12;;;34.10;29.10;;;;;;2626325;52;21009;-88
2022/06/16 14:38:56;;;;;;;2.37;0.98;;;34.20;29.10;;;;;;2623132;52;20953;-82